Mc Dougal, Arkansas
Current Conditions -  °F | °C
As of 5:35 PM on Saturday 20 Dec 2014 (Local Time) from K4M9 Reporting Station
Haze Haze  
Wind Chill: 40°   Ceiling: 2600
Heat Index: 43°   Visibility: 1.2mi
Dew Point: 36°   Wind: 5mph
Humidity: 76%   Direction: 70°ENE
Pressure: 30.26"   Gusts: NA
Location:  36.4376°N, 90.3867°W
Report Text: K4M9 202335Z AUTO 07004KT 1 1/4SM HZ OVC026 06/02 A3026 RMK AO2
Loading
Personal Weather Stations






























Interactive Weather Map New forecast layout! Learn more

10-Day Weather Forecast

Advertisements
Track Severe Weather on mobile